Normandy Isle, Florida
Current Conditions -  °F | °C
As of 5:53 PM on Monday 22 Dec 2014 (Local Time) from KMIA Reporting Station
Broken Clouds Broken Clouds  
Wind Chill: 76°   Ceiling: 25000
Heat Index: 76°   Visibility: 10mi
Dew Point: 70°   Wind: 7mph
Humidity: 82%   Direction: 140°SE
Pressure: 29.96"   Gusts: NA
Location:  25.8619°N, 80.1259°W
Report Text: KMIA 222253Z 14006KT 10SM FEW020 BKN250 24/21 A2996 RMK AO2 SLP145 T02440211
Loading
Personal Weather Stations






























Interactive Weather Map New forecast layout! Learn more

10-Day Weather Forecast

Advertisements
Track Severe Weather on mobile